createdAt,value
2023-02-21T00:02:01.276Z,2.88
2023-02-21T00:04:47.892Z,2.40
2023-02-21T00:07:33.296Z,2.45
2023-02-21T00:10:18.925Z,2.33
2023-02-21T00:13:04.582Z,2.85
2023-02-21T00:15:50.145Z,2.10
2023-02-21T00:18:36.238Z,2.42
2023-02-21T00:21:21.834Z,2.78
2023-02-21T00:24:07.464Z,2.33
2023-02-21T00:26:53.089Z,2.50
2023-02-21T00:29:38.852Z,2.83
2023-02-21T00:32:27.432Z,2.65
2023-02-21T00:35:12.815Z,3.10
2023-02-21T00:37:58.460Z,2.47
2023-02-21T00:40:44.595Z,2.35
2023-02-21T00:43:30.024Z,2.97
2023-02-21T00:46:15.612Z,2.83
2023-02-21T00:49:01.143Z,2.90
2023-02-21T00:51:46.805Z,3.00
2023-02-21T00:54:32.389Z,2.60
2023-02-21T00:57:17.906Z,2.78
2023-02-21T01:00:03.771Z,2.97
2023-02-21T01:02:49.203Z,3.08
2023-02-21T01:05:34.957Z,2.80
2023-02-21T01:08:21.995Z,3.10
2023-02-21T01:11:07.638Z,2.92
2023-02-21T01:13:53.386Z,3.20
2023-02-21T01:16:38.868Z,3.15
2023-02-21T01:19:24.884Z,2.75
2023-02-21T01:22:10.471Z,3.17
2023-02-21T01:24:57.352Z,3.10
2023-02-21T01:27:43.242Z,2.90
2023-02-21T01:30:29.502Z,3.70
2023-02-21T01:33:14.937Z,3.53
2023-02-21T01:36:01.192Z,3.35
2023-02-21T01:38:48.061Z,3.10
2023-02-21T01:41:33.562Z,3.20
2023-02-21T01:44:47.345Z,3.50
2023-02-21T01:47:33.247Z,3.50
2023-02-21T01:50:22.039Z,4.07
2023-02-21T01:53:08.585Z,3.88
2023-02-21T01:55:58.317Z,4.50
2023-02-21T01:58:45.749Z,3.80
2023-02-21T02:01:42.293Z,3.95
2023-02-21T02:04:27.671Z,3.90
2023-02-21T02:07:13.506Z,4.25
2023-02-21T02:09:59.033Z,3.90
2023-02-21T02:12:44.222Z,4.28
2023-02-21T02:15:21.745Z,3.90
2023-02-21T02:18:13.684Z,3.88
2023-02-21T02:21:15.207Z,4.63
2023-02-21T02:24:13.686Z,4.50
2023-02-21T02:27:14.859Z,4.00
2023-02-21T02:30:03.667Z,4.38
2023-02-21T02:32:49.594Z,4.55
2023-02-21T02:35:31.259Z,4.55
2023-02-21T02:38:04.526Z,4.70
2023-02-21T02:40:44.491Z,4.32
2023-02-21T02:43:14.200Z,5.90
2023-02-21T02:46:22.236Z,4.85
2023-02-21T02:49:13.140Z,4.05
2023-02-21T02:51:41.226Z,4.28
2023-02-21T02:54:10.483Z,4.72
2023-02-21T02:56:38.977Z,4.88
2023-02-21T02:59:25.960Z,4.88
2023-02-21T03:01:59.557Z,4.35
2023-02-21T03:04:49.228Z,4.60
2023-02-21T03:07:20.522Z,4.00
2023-02-21T03:10:12.432Z,4.78
2023-02-21T03:12:51.912Z,4.15
2023-02-21T03:15:25.945Z,5.10
2023-02-21T03:18:24.024Z,5.00
2023-02-21T03:20:56.664Z,4.30
2023-02-21T03:23:27.815Z,4.15
2023-02-21T03:25:59.592Z,4.22
2023-02-21T03:28:28.354Z,4.47
2023-02-21T03:30:57.986Z,4.72
2023-02-21T03:33:25.350Z,4.78
2023-02-21T03:35:53.674Z,4.60
2023-02-21T03:38:20.767Z,4.35
2023-02-21T03:40:49.729Z,4.13
2023-02-21T03:43:16.760Z,4.80
2023-02-21T03:45:50.439Z,4.03
2023-02-21T03:48:31.043Z,5.13
2023-02-21T03:51:05.310Z,4.38
2023-02-21T03:53:36.507Z,4.70
2023-02-21T03:56:05.090Z,4.53
2023-02-21T03:58:47.640Z,5.32
2023-02-21T04:01:17.857Z,5.20
2023-02-21T04:03:44.989Z,4.50
2023-02-21T04:06:12.067Z,4.60
2023-02-21T04:08:39.211Z,4.55
2023-02-21T04:11:06.690Z,5.30
2023-02-21T04:13:35.259Z,4.93
2023-02-21T04:16:03.580Z,4.82
2023-02-21T04:18:32.721Z,4.75
2023-02-21T04:21:01.608Z,5.05
2023-02-21T04:23:29.367Z,4.30
2023-02-21T04:25:56.475Z,5.43
2023-02-21T04:28:37.755Z,4.97
2023-02-21T04:31:05.076Z,5.30
2023-02-21T04:33:32.489Z,5.50
2023-02-21T04:35:59.846Z,5.25
2023-02-21T04:38:37.773Z,5.68
2023-02-21T04:41:05.481Z,5.40
2023-02-21T04:43:33.120Z,5.45
2023-02-21T04:46:00.539Z,6.18
2023-02-21T04:48:27.841Z,6.97
2023-02-21T04:50:57.295Z,5.97
2023-02-21T04:53:26.413Z,5.97
2023-02-21T04:55:53.576Z,6.13
2023-02-21T04:58:20.656Z,6.70
2023-02-21T05:00:47.747Z,6.20
2023-02-21T05:03:14.902Z,6.95
2023-02-21T05:05:41.846Z,6.82
2023-02-21T05:08:08.912Z,6.50
2023-02-21T05:10:45.165Z,6.97
2023-02-21T05:13:13.515Z,6.85
2023-02-21T05:15:40.584Z,7.05
2023-02-21T05:18:07.765Z,7.93
2023-02-21T05:20:34.762Z,7.57
2023-02-21T05:23:08.223Z,8.38
2023-02-21T05:25:40.205Z,8.05
2023-02-21T05:28:07.295Z,6.78
2023-02-21T05:30:34.443Z,7.32
2023-02-21T05:33:01.744Z,8.10
2023-02-21T05:35:28.771Z,7.75
2023-02-21T05:37:55.838Z,7.50
2023-02-21T05:40:22.861Z,8.73
2023-02-21T05:42:50.226Z,7.78
2023-02-21T05:45:18.601Z,7.43
2023-02-21T05:47:45.711Z,8.30
2023-02-21T05:50:12.715Z,7.97
2023-02-21T05:52:39.915Z,7.88
2023-02-21T05:55:07.081Z,9.27
2023-02-21T05:57:39.454Z,8.23
2023-02-21T06:00:07.147Z,8.80
2023-02-21T06:02:39.044Z,9.75
2023-02-21T06:05:06.654Z,8.05
2023-02-21T06:07:34.179Z,9.48
2023-02-21T06:10:01.068Z,9.77
2023-02-21T06:12:28.018Z,10.60
2023-02-21T06:14:55.192Z,9.90
2023-02-21T06:17:22.091Z,10.68
2023-02-21T06:19:49.128Z,9.18
2023-02-21T06:22:16.228Z,9.68
2023-02-21T06:24:43.880Z,10.60
2023-02-21T06:27:10.923Z,10.18
2023-02-21T06:29:37.928Z,9.52
2023-02-21T06:32:05.285Z,8.90
2023-02-21T06:34:32.264Z,9.82
2023-02-21T06:36:59.186Z,10.35
2023-02-21T06:39:26.207Z,10.07
2023-02-21T06:41:53.444Z,9.80
2023-02-21T06:44:21.034Z,10.60
2023-02-21T06:46:50.624Z,10.05
2023-02-21T06:49:17.707Z,9.32
2023-02-21T06:51:44.762Z,9.48
2023-02-21T06:54:12.709Z,11.15
2023-02-21T06:56:40.156Z,9.60
2023-02-21T06:59:10.094Z,10.75
2023-02-21T07:01:37.110Z,9.85
2023-02-21T07:04:04.324Z,10.27
2023-02-21T07:06:33.527Z,9.95
2023-02-21T07:09:00.596Z,10.82
2023-02-21T07:11:28.782Z,11.18
2023-02-21T07:13:56.951Z,10.25
2023-02-21T07:16:23.956Z,10.90
2023-02-21T07:18:51.226Z,10.70
2023-02-21T07:21:20.965Z,10.90
2023-02-21T07:23:48.694Z,10.75
2023-02-21T07:26:16.138Z,11.43
2023-02-21T07:28:43.383Z,11.00
2023-02-21T07:31:13.788Z,11.50
2023-02-21T07:33:41.108Z,11.57
2023-02-21T07:36:08.583Z,12.32
2023-02-21T07:38:35.696Z,11.48
2023-02-21T07:41:03.788Z,10.93
2023-02-21T07:43:31.214Z,10.57
2023-02-21T07:45:58.624Z,11.73
2023-02-21T07:48:26.018Z,11.57
2023-02-21T07:50:53.213Z,11.38
2023-02-21T07:53:20.362Z,13.20
2023-02-21T07:55:47.647Z,12.98
2023-02-21T07:58:14.823Z,12.35
2023-02-21T08:00:41.963Z,11.30
2023-02-21T08:03:13.731Z,10.57
2023-02-21T08:05:41.112Z,10.27
2023-02-21T08:08:09.431Z,10.93
2023-02-21T08:10:36.973Z,10.73
2023-02-21T08:13:04.813Z,11.40
2023-02-21T08:15:32.080Z,12.82
2023-02-21T08:17:59.351Z,11.18
2023-02-21T08:20:26.377Z,10.30
2023-02-21T08:22:53.667Z,10.60
2023-02-21T08:25:20.755Z,11.25
2023-02-21T08:27:53.597Z,11.65
2023-02-21T08:30:21.024Z,11.50
2023-02-21T08:32:48.350Z,12.25
2023-02-21T08:35:16.140Z,11.15
2023-02-21T08:37:48.250Z,11.65
2023-02-21T08:40:18.942Z,11.18
2023-02-21T08:42:50.450Z,10.52
2023-02-21T08:45:19.719Z,10.73
2023-02-21T08:47:47.009Z,11.88
2023-02-21T08:50:14.664Z,10.52
2023-02-21T08:52:41.843Z,10.88
2023-02-21T08:55:09.084Z,10.27
2023-02-21T08:57:36.142Z,9.93
2023-02-21T09:00:06.077Z,10.43
2023-02-21T09:02:33.174Z,9.70
2023-02-21T09:05:00.212Z,10.02
2023-02-21T09:07:28.932Z,9.75
2023-02-21T09:09:55.991Z,9.70
2023-02-21T09:12:23.011Z,9.93
2023-02-21T09:14:50.037Z,9.60
2023-02-21T09:17:17.070Z,9.95
2023-02-21T09:19:44.889Z,9.88
2023-02-21T09:22:12.049Z,9.80
2023-02-21T09:24:39.420Z,9.65
2023-02-21T09:27:07.092Z,10.88
2023-02-21T09:29:46.484Z,10.02
2023-02-21T09:32:14.189Z,10.30
2023-02-21T09:34:41.616Z,9.40
2023-02-21T09:37:08.960Z,10.60
2023-02-21T09:39:39.504Z,9.73
2023-02-21T09:42:06.771Z,10.55
2023-02-21T09:44:35.300Z,9.63
2023-02-21T09:47:05.303Z,9.75
2023-02-21T09:49:40.142Z,9.30
2023-02-21T09:52:27.418Z,10.70
2023-02-21T09:54:58.227Z,10.50
2023-02-21T09:57:25.176Z,8.95
2023-02-21T09:59:52.464Z,10.02
2023-02-21T10:02:29.322Z,8.98
2023-02-21T10:05:24.745Z,9.63
2023-02-21T10:08:14.611Z,10.00
2023-02-21T10:10:55.529Z,9.48
2023-02-21T10:13:40.654Z,9.35
2023-02-21T10:16:21.431Z,8.88
2023-02-21T10:19:16.410Z,10.60
2023-02-21T10:21:47.534Z,9.57
2023-02-21T10:24:25.727Z,10.93
2023-02-21T10:27:18.603Z,9.85
2023-02-21T10:29:49.436Z,9.57
2023-02-21T10:32:16.732Z,8.60
2023-02-21T10:34:47.423Z,8.85
2023-02-21T10:37:33.968Z,9.55
2023-02-21T10:40:16.771Z,8.82
2023-02-21T10:42:49.657Z,8.13
2023-02-21T10:45:18.164Z,9.18
2023-02-21T10:48:00.692Z,8.07
2023-02-21T10:50:39.247Z,8.18
2023-02-21T10:53:07.662Z,8.70
2023-02-21T10:55:34.631Z,8.65
2023-02-21T10:58:23.746Z,7.40
2023-02-21T11:00:50.984Z,7.18
2023-02-21T11:03:27.727Z,7.65
2023-02-21T11:05:57.963Z,8.27
2023-02-21T11:08:42.026Z,7.88
2023-02-21T11:11:09.686Z,6.85
2023-02-21T11:13:37.600Z,6.43
2023-02-21T11:16:19.057Z,6.50
2023-02-21T11:18:46.402Z,6.28
2023-02-21T11:21:18.819Z,7.03
2023-02-21T11:23:58.021Z,6.20
2023-02-21T11:26:25.632Z,6.22
2023-02-21T11:28:53.285Z,6.15
2023-02-21T11:31:30.857Z,6.88
2023-02-21T11:34:00.848Z,6.25
2023-02-21T11:36:31.373Z,6.63
2023-02-21T11:39:07.435Z,6.15
2023-02-21T11:41:55.241Z,6.43
2023-02-21T11:44:37.785Z,7.50
2023-02-21T11:47:14.229Z,7.75
2023-02-21T11:49:49.897Z,7.63
2023-02-21T11:52:29.841Z,7.68
2023-02-21T11:54:57.017Z,6.93
2023-02-21T11:57:43.167Z,7.00
2023-02-21T12:00:23.352Z,6.80
2023-02-21T12:03:13.094Z,6.50
2023-02-21T12:05:46.106Z,6.50
2023-02-21T12:08:35.532Z,6.43
2023-02-21T12:11:26.270Z,6.97
2023-02-21T12:14:14.686Z,6.55
2023-02-21T12:17:09.735Z,6.40
2023-02-21T12:20:00.251Z,6.75
2023-02-21T12:22:42.864Z,6.53
2023-02-21T12:25:25.261Z,6.50
2023-02-21T12:28:14.047Z,6.57
2023-02-21T12:30:44.207Z,5.85
2023-02-21T12:33:49.063Z,6.65
2023-02-21T12:36:34.549Z,6.38
2023-02-21T12:39:35.881Z,6.95
2023-02-21T12:42:40.132Z,6.03
2023-02-21T12:45:24.855Z,5.70
2023-02-21T12:48:26.343Z,5.93
2023-02-21T12:50:57.894Z,5.65
2023-02-21T12:53:44.269Z,6.68
2023-02-21T12:56:33.318Z,5.97
2023-02-21T12:59:13.675Z,7.38
2023-02-21T13:01:49.562Z,8.25
2023-02-21T13:04:44.531Z,7.78
2023-02-21T13:07:27.712Z,5.70
2023-02-21T13:10:18.149Z,6.05
2023-02-21T13:12:51.555Z,5.93
2023-02-21T13:15:23.949Z,6.20
2023-02-21T13:17:59.516Z,5.72
2023-02-21T13:20:31.170Z,5.95
2023-02-21T13:23:54.908Z,6.05
2023-02-21T13:26:55.007Z,5.60
2023-02-21T13:29:22.237Z,5.40
2023-02-21T13:32:00.890Z,6.10
2023-02-21T13:34:31.924Z,6.28
2023-02-21T13:37:07.047Z,5.05
2023-02-21T13:39:38.902Z,5.75
2023-02-21T13:42:11.328Z,5.50
2023-02-21T13:44:45.419Z,5.75
2023-02-21T13:47:23.042Z,5.50
2023-02-21T13:49:58.740Z,5.60
2023-02-21T13:52:33.525Z,5.63
2023-02-21T13:55:15.790Z,5.68
2023-02-21T13:57:42.880Z,5.57
2023-02-21T14:00:25.046Z,4.78
2023-02-21T14:03:28.543Z,5.75
2023-02-21T14:05:55.677Z,5.32
2023-02-21T14:08:43.849Z,6.00
2023-02-21T14:11:13.668Z,5.78
2023-02-21T14:13:59.732Z,4.80
2023-02-21T14:16:49.652Z,5.30
2023-02-21T14:19:41.426Z,5.53
2023-02-21T14:22:16.552Z,5.55
2023-02-21T14:24:48.433Z,5.18
2023-02-21T14:27:18.465Z,5.55
2023-02-21T14:29:58.934Z,6.20
2023-02-21T14:32:35.926Z,5.78
2023-02-21T14:35:46.490Z,5.38
2023-02-21T14:38:25.057Z,6.00
2023-02-21T14:41:03.215Z,5.43
2023-02-21T14:44:09.330Z,4.78
2023-02-21T14:47:08.583Z,5.32
2023-02-21T14:50:01.021Z,5.22
2023-02-21T14:53:10.642Z,5.43
2023-02-21T14:55:59.553Z,4.85
2023-02-21T14:58:49.139Z,5.25
2023-02-21T15:01:26.441Z,5.05
2023-02-21T15:04:08.695Z,5.13
2023-02-21T15:06:37.957Z,6.03
2023-02-21T15:09:19.474Z,5.32
2023-02-21T15:11:48.441Z,5.68
2023-02-21T15:14:25.623Z,5.55
2023-02-21T15:16:59.598Z,5.85
2023-02-21T15:19:29.073Z,6.05
2023-02-21T15:22:21.928Z,5.80
2023-02-21T15:25:11.142Z,5.30
2023-02-21T15:27:51.108Z,5.88
2023-02-21T15:30:23.293Z,6.45
2023-02-21T15:33:14.191Z,6.25
2023-02-21T15:35:46.447Z,5.93
2023-02-21T15:38:35.620Z,6.93
2023-02-21T15:41:15.678Z,6.28
2023-02-21T15:43:46.973Z,7.18
2023-02-21T15:46:20.621Z,6.97
2023-02-21T15:48:48.727Z,7.43
2023-02-21T15:51:17.223Z,7.72
2023-02-21T15:54:04.770Z,9.55
2023-02-21T15:56:32.062Z,9.43
2023-02-21T15:59:13.091Z,8.45
2023-02-21T16:01:41.166Z,8.95
2023-02-21T16:04:18.650Z,9.35
2023-02-21T16:06:56.692Z,8.50
2023-02-21T16:09:34.438Z,8.50
2023-02-21T16:12:33.187Z,8.05
2023-02-21T16:15:01.685Z,9.32
2023-02-21T16:17:44.334Z,8.20
2023-02-21T16:20:30.253Z,9.60
2023-02-21T16:23:54.090Z,8.75
2023-02-21T16:26:28.312Z,8.57
2023-02-21T16:29:00.125Z,9.85
2023-02-21T16:31:33.314Z,11.60
2023-02-21T16:34:00.499Z,14.02
2023-02-21T16:36:30.204Z,16.35
2023-02-21T16:38:58.489Z,16.27
2023-02-21T16:41:26.336Z,15.52
2023-02-21T16:43:53.599Z,14.93
2023-02-21T16:46:28.452Z,14.55
2023-02-21T16:48:59.098Z,14.30
2023-02-21T16:51:33.552Z,12.60
2023-02-21T16:54:01.394Z,14.38
2023-02-21T16:56:28.977Z,19.95
2023-02-21T16:58:57.258Z,21.48
2023-02-21T17:01:30.032Z,21.58
2023-02-21T17:03:57.245Z,21.23
2023-02-21T17:06:26.162Z,21.30
2023-02-21T17:08:53.511Z,18.42
2023-02-21T17:11:20.722Z,15.73
2023-02-21T17:13:47.934Z,12.60
2023-02-21T17:16:15.390Z,11.05
2023-02-21T17:18:45.170Z,9.10
2023-02-21T17:21:12.759Z,9.73
2023-02-21T17:23:41.044Z,8.73
2023-02-21T17:26:07.998Z,8.15
2023-02-21T17:28:37.727Z,7.43
2023-02-21T17:31:05.155Z,7.38
2023-02-21T17:33:35.579Z,7.32
2023-02-21T17:36:02.827Z,6.05
2023-02-21T17:38:29.833Z,6.63
2023-02-21T17:40:57.646Z,6.85
2023-02-21T17:43:24.722Z,6.80
2023-02-21T17:45:51.777Z,7.07
2023-02-21T17:48:19.860Z,6.80
2023-02-21T17:50:46.963Z,6.13
2023-02-21T17:53:14.219Z,6.15
2023-02-21T17:55:41.538Z,7.07
2023-02-21T17:58:09.809Z,6.40
2023-02-21T18:00:37.175Z,6.97
2023-02-21T18:03:05.961Z,6.55
2023-02-21T18:05:33.245Z,6.25
2023-02-21T18:08:00.198Z,6.30
2023-02-21T18:10:27.847Z,6.63
2023-02-21T18:12:55.436Z,6.18
2023-02-21T18:15:24.468Z,6.70
2023-02-21T18:17:51.677Z,6.47
2023-02-21T18:20:19.329Z,6.72
2023-02-21T18:22:46.904Z,6.72
2023-02-21T18:25:16.594Z,7.22
2023-02-21T18:27:43.816Z,6.82
2023-02-21T18:30:11.514Z,7.68
2023-02-21T18:32:38.658Z,7.50
2023-02-21T18:35:06.255Z,7.35
2023-02-21T18:37:33.371Z,8.27
2023-02-21T18:40:00.559Z,7.32
2023-02-21T18:42:27.810Z,7.30
2023-02-21T18:44:57.974Z,6.65
2023-02-21T18:47:28.500Z,7.00
2023-02-21T18:49:56.817Z,7.90
2023-02-21T18:52:24.201Z,6.88
2023-02-21T18:54:51.456Z,7.53
2023-02-21T18:57:20.751Z,6.97
2023-02-21T18:59:48.306Z,7.05
2023-02-21T19:02:18.762Z,7.07
2023-02-21T19:04:46.375Z,6.65
2023-02-21T19:07:17.081Z,6.53
2023-02-21T19:09:50.363Z,6.78
2023-02-21T19:12:17.938Z,6.68
2023-02-21T19:14:45.483Z,6.47
2023-02-21T19:17:12.727Z,6.85
2023-02-21T19:19:39.745Z,7.70
2023-02-21T19:22:06.928Z,7.30
2023-02-21T19:24:34.120Z,7.50
2023-02-21T19:27:01.879Z,6.40
2023-02-21T19:29:29.149Z,7.22
2023-02-21T19:31:56.975Z,6.97
2023-02-21T19:34:24.261Z,7.10
2023-02-21T19:36:51.982Z,6.20
2023-02-21T19:39:19.529Z,6.40
2023-02-21T19:41:47.438Z,6.18
2023-02-21T19:44:15.091Z,6.22
2023-02-21T19:46:42.540Z,5.82
2023-02-21T19:49:20.798Z,5.57
2023-02-21T19:51:53.782Z,5.63
2023-02-21T19:54:24.692Z,6.45
2023-02-21T19:56:52.112Z,6.07
2023-02-21T19:59:19.351Z,5.88
2023-02-21T20:01:46.637Z,6.13
2023-02-21T20:04:13.964Z,5.40
2023-02-21T20:06:41.197Z,5.97
2023-02-21T20:09:10.212Z,5.53
2023-02-21T20:11:40.386Z,6.20
2023-02-21T20:14:09.017Z,4.85
2023-02-21T20:16:40.766Z,5.55
2023-02-21T20:19:08.450Z,5.70
2023-02-21T20:21:35.916Z,5.55
2023-02-21T20:24:04.069Z,5.47
2023-02-21T20:26:31.162Z,5.32
2023-02-21T20:28:58.238Z,5.10
2023-02-21T20:31:32.293Z,5.22
2023-02-21T20:34:03.213Z,5.40
2023-02-21T20:36:33.318Z,4.88
2023-02-21T20:39:01.504Z,6.80
2023-02-21T20:41:31.240Z,6.70
2023-02-21T20:43:59.025Z,5.40
2023-02-21T20:46:26.683Z,5.60
2023-02-21T20:48:54.038Z,5.18
2023-02-21T20:51:29.572Z,5.45
2023-02-21T20:54:00.455Z,5.45
2023-02-21T20:56:36.486Z,5.10
2023-02-21T20:59:05.068Z,5.75
2023-02-21T21:01:32.251Z,5.30
2023-02-21T21:03:59.475Z,5.32
2023-02-21T21:06:26.630Z,5.32
2023-02-21T21:08:54.004Z,6.47
2023-02-21T21:11:22.022Z,6.25
2023-02-21T21:13:50.171Z,5.95
2023-02-21T21:16:17.355Z,8.35
2023-02-21T21:18:45.126Z,8.65
2023-02-21T21:21:12.541Z,9.13
2023-02-21T21:23:39.763Z,9.05
2023-02-21T21:26:09.567Z,8.60
2023-02-21T21:28:36.827Z,8.48
2023-02-21T21:31:04.602Z,7.90
2023-02-21T21:33:31.707Z,9.10
2023-02-21T21:35:58.726Z,7.22
2023-02-21T21:38:26.784Z,7.78
2023-02-21T21:40:56.852Z,7.82
2023-02-21T21:43:25.063Z,7.78
2023-02-21T21:45:52.589Z,8.15
2023-02-21T21:48:19.823Z,7.13
2023-02-21T21:50:47.182Z,7.65
2023-02-21T21:53:14.612Z,6.43
2023-02-21T21:55:41.979Z,7.45
2023-02-21T21:58:14.055Z,6.57
2023-02-21T22:00:46.422Z,6.75
2023-02-21T22:03:18.420Z,8.52
2023-02-21T22:05:46.101Z,8.55
2023-02-21T22:08:17.401Z,8.75
2023-02-21T22:10:45.563Z,10.25
2023-02-21T22:13:20.779Z,9.93
2023-02-21T22:15:48.659Z,9.18
2023-02-21T22:18:20.222Z,8.23
2023-02-21T22:20:51.070Z,6.70
2023-02-21T22:23:30.316Z,7.18
2023-02-21T22:25:57.323Z,6.60
2023-02-21T22:28:24.706Z,6.78
2023-02-21T22:30:52.397Z,7.25
2023-02-21T22:33:21.501Z,7.28
2023-02-21T22:35:48.922Z,6.80
2023-02-21T22:38:17.496Z,7.55
2023-02-21T22:40:47.145Z,7.25
2023-02-21T22:43:14.847Z,7.80
2023-02-21T22:45:50.005Z,7.72
2023-02-21T22:48:20.440Z,8.02
2023-02-21T22:50:48.238Z,7.95
2023-02-21T22:53:18.949Z,8.23
2023-02-21T22:55:51.616Z,7.93
2023-02-21T22:58:20.640Z,7.90
2023-02-21T23:00:48.866Z,7.88
2023-02-21T23:03:17.877Z,7.55
2023-02-21T23:05:51.782Z,8.32
2023-02-21T23:08:21.729Z,7.10
2023-02-21T23:10:49.307Z,7.80
2023-02-21T23:13:19.840Z,8.38
2023-02-21T23:15:47.949Z,7.95
2023-02-21T23:18:23.284Z,7.75
2023-02-21T23:20:53.555Z,7.15
2023-02-21T23:23:29.119Z,7.75
2023-02-21T23:26:00.866Z,8.15
2023-02-21T23:28:29.565Z,7.72
2023-02-21T23:30:58.200Z,7.82
2023-02-21T23:33:28.079Z,7.10
2023-02-21T23:35:57.152Z,7.63
2023-02-21T23:38:28.237Z,7.70
2023-02-21T23:40:58.070Z,7.97
2023-02-21T23:43:30.328Z,7.95
2023-02-21T23:45:59.004Z,7.97
2023-02-21T23:48:26.617Z,8.63
2023-02-21T23:50:57.778Z,8.20
2023-02-21T23:53:27.687Z,8.32
2023-02-21T23:55:57.743Z,7.85
2023-02-21T23:58:27.484Z,5.47
